createdAt,value
2022-11-07T00:02:08.113Z,4.20
2022-11-07T00:04:36.569Z,4.20
2022-11-07T00:07:08.245Z,4.20
2022-11-07T00:09:36.217Z,4.20
2022-11-07T00:12:04.793Z,4.30
2022-11-07T00:14:32.713Z,4.30
2022-11-07T00:17:00.650Z,4.30
2022-11-07T00:19:28.566Z,4.30
2022-11-07T00:21:56.528Z,4.30
2022-11-07T00:24:25.760Z,4.30
2022-11-07T00:26:53.926Z,4.30
2022-11-07T00:29:22.540Z,4.30
2022-11-07T00:31:51.121Z,4.30
2022-11-07T00:34:19.148Z,4.30
2022-11-07T00:36:47.067Z,4.30
2022-11-07T00:39:14.944Z,4.30
2022-11-07T00:41:44.236Z,4.30
2022-11-07T00:44:12.132Z,4.20
2022-11-07T00:46:40.041Z,4.20
2022-11-07T00:49:07.933Z,4.20
2022-11-07T00:51:36.025Z,4.20
2022-11-07T00:54:04.757Z,4.20
2022-11-07T00:56:32.803Z,4.10
2022-11-07T00:59:02.348Z,4.10
2022-11-07T01:01:32.768Z,4.10
2022-11-07T01:04:18.176Z,4.10
2022-11-07T01:06:47.275Z,4.20
2022-11-07T01:09:17.299Z,4.10
2022-11-07T01:11:46.866Z,4.10
2022-11-07T01:14:17.780Z,4.10
2022-11-07T01:16:45.915Z,4.10
2022-11-07T01:19:14.317Z,4.00
2022-11-07T01:21:43.580Z,4.10
2022-11-07T01:24:13.123Z,4.10
2022-11-07T01:26:42.362Z,4.10
2022-11-07T01:29:10.568Z,4.00
2022-11-07T01:31:39.862Z,4.10
2022-11-07T01:34:08.247Z,4.10
2022-11-07T01:36:36.251Z,4.10
2022-11-07T01:39:05.391Z,4.00
2022-11-07T01:41:36.659Z,4.00
2022-11-07T01:44:21.070Z,4.00
2022-11-07T01:46:51.126Z,3.90
2022-11-07T01:49:22.506Z,4.00
2022-11-07T01:51:56.515Z,4.00
2022-11-07T01:54:27.431Z,4.10
2022-11-07T01:56:58.322Z,4.10
2022-11-07T01:59:30.174Z,4.00
2022-11-07T02:02:00.041Z,4.00
2022-11-07T02:04:30.595Z,4.00
2022-11-07T02:07:05.661Z,4.00
2022-11-07T02:09:33.636Z,4.00
2022-11-07T02:12:02.117Z,3.90
2022-11-07T02:14:32.360Z,3.90
2022-11-07T02:17:01.778Z,3.90
2022-11-07T02:19:36.133Z,3.90
2022-11-07T02:22:14.098Z,3.80
2022-11-07T02:24:43.805Z,3.80
2022-11-07T02:27:14.410Z,3.80
2022-11-07T02:29:46.709Z,3.70
2022-11-07T02:32:15.020Z,3.70
2022-11-07T02:34:42.937Z,3.80
2022-11-07T02:37:27.932Z,3.80
2022-11-07T02:39:57.234Z,3.70
2022-11-07T02:42:25.709Z,3.70
2022-11-07T02:44:55.914Z,3.70
2022-11-07T02:47:23.849Z,3.50
2022-11-07T02:49:51.732Z,3.50
2022-11-07T02:52:19.699Z,3.50
2022-11-07T02:54:47.585Z,3.50
2022-11-07T02:57:16.845Z,3.60
2022-11-07T02:59:44.723Z,3.60
2022-11-07T03:02:12.708Z,3.60
2022-11-07T03:04:42.929Z,3.60
2022-11-07T03:07:14.496Z,3.60
2022-11-07T03:09:42.441Z,3.60
2022-11-07T03:12:10.672Z,3.60
2022-11-07T03:14:40.008Z,3.50
2022-11-07T03:17:07.904Z,3.40
2022-11-07T03:19:35.792Z,3.40
2022-11-07T03:22:03.977Z,3.40
2022-11-07T03:24:32.479Z,3.40
2022-11-07T03:27:00.412Z,3.40
2022-11-07T03:29:28.289Z,3.40
2022-11-07T03:31:57.548Z,3.50
2022-11-07T03:34:25.441Z,3.50
2022-11-07T03:36:53.354Z,3.40
2022-11-07T03:39:25.649Z,3.40
2022-11-07T03:41:53.964Z,3.50
2022-11-07T03:44:21.986Z,3.50
2022-11-07T03:46:49.904Z,3.60
2022-11-07T03:49:19.196Z,3.60
2022-11-07T03:51:47.098Z,3.60
2022-11-07T03:54:15.009Z,3.60
2022-11-07T03:56:42.916Z,3.60
2022-11-07T03:59:10.840Z,3.70
2022-11-07T04:01:38.807Z,3.70
2022-11-07T04:04:06.844Z,3.70
2022-11-07T04:06:36.116Z,3.70
2022-11-07T04:09:04.069Z,3.70
2022-11-07T04:11:49.588Z,3.70
2022-11-07T04:14:35.059Z,3.70
2022-11-07T04:17:21.363Z,3.80
2022-11-07T04:19:50.653Z,3.70
2022-11-07T04:22:20.236Z,3.70
2022-11-07T04:24:48.124Z,3.70
2022-11-07T04:27:35.044Z,3.70
2022-11-07T04:30:19.206Z,3.70
2022-11-07T04:32:48.220Z,3.70
2022-11-07T04:35:16.431Z,3.70
2022-11-07T04:37:45.823Z,3.70
2022-11-07T04:40:14.491Z,3.80
2022-11-07T04:42:42.457Z,3.80
2022-11-07T04:45:11.919Z,3.80
2022-11-07T04:47:40.747Z,3.90
2022-11-07T04:50:12.063Z,3.90
2022-11-07T04:52:40.183Z,3.90
2022-11-07T04:55:12.187Z,3.90
2022-11-07T04:57:41.203Z,3.90
2022-11-07T05:00:10.067Z,3.90
2022-11-07T05:02:37.972Z,4.00
2022-11-07T05:05:06.906Z,4.00
2022-11-07T05:07:34.827Z,4.00
2022-11-07T05:10:02.728Z,4.00
2022-11-07T05:12:31.968Z,3.90
2022-11-07T05:14:59.874Z,3.90
2022-11-07T05:17:28.302Z,3.90
2022-11-07T05:19:56.239Z,3.90
2022-11-07T05:22:56.527Z,3.90
2022-11-07T05:25:24.494Z,4.00
2022-11-07T05:27:57.403Z,4.00
2022-11-07T05:30:25.291Z,4.00
2022-11-07T05:32:53.205Z,4.00
2022-11-07T05:35:21.098Z,4.00
2022-11-07T05:37:49.467Z,4.00
2022-11-07T05:40:17.798Z,4.10
2022-11-07T05:42:45.682Z,4.10
2022-11-07T05:45:14.946Z,4.10
2022-11-07T05:47:42.858Z,4.10
2022-11-07T05:50:11.126Z,4.10
2022-11-07T05:52:39.091Z,4.10
2022-11-07T05:55:07.629Z,4.00
2022-11-07T05:57:35.530Z,4.00
2022-11-07T06:00:03.734Z,4.00
2022-11-07T06:02:33.121Z,4.00
2022-11-07T06:05:01.079Z,4.00
2022-11-07T06:07:29.010Z,4.00
2022-11-07T06:09:56.922Z,4.00
2022-11-07T06:12:24.845Z,4.00
2022-11-07T06:14:52.768Z,4.00
2022-11-07T06:17:20.685Z,4.00
2022-11-07T06:19:50.053Z,4.00
2022-11-07T06:22:17.977Z,4.00
2022-11-07T06:24:45.909Z,4.00
2022-11-07T06:27:14.278Z,4.10
2022-11-07T06:29:42.225Z,4.10
2022-11-07T06:32:10.174Z,4.10
2022-11-07T06:34:38.073Z,4.10
2022-11-07T06:37:07.476Z,4.10
2022-11-07T06:39:35.409Z,4.20
2022-11-07T06:42:03.485Z,4.20
2022-11-07T06:44:31.466Z,4.20
2022-11-07T06:46:59.462Z,4.30
2022-11-07T06:49:27.353Z,4.30
2022-11-07T06:51:55.308Z,4.30
2022-11-07T06:54:24.548Z,4.30
2022-11-07T06:56:52.461Z,4.40
2022-11-07T06:59:20.386Z,4.40
2022-11-07T07:01:50.259Z,4.40
2022-11-07T07:04:18.549Z,4.40
2022-11-07T07:06:46.669Z,4.40
2022-11-07T07:09:14.540Z,4.50
2022-11-07T07:11:45.133Z,4.50
2022-11-07T07:14:13.290Z,4.50
2022-11-07T07:16:41.269Z,4.60
2022-11-07T07:19:09.172Z,4.60
2022-11-07T07:21:37.065Z,4.60
2022-11-07T07:24:05.740Z,4.70
2022-11-07T07:26:33.688Z,4.70
2022-11-07T07:29:02.921Z,4.70
2022-11-07T07:31:32.797Z,4.70
2022-11-07T07:34:00.710Z,4.80
2022-11-07T07:36:29.223Z,4.80
2022-11-07T07:38:57.129Z,4.80
2022-11-07T07:41:25.009Z,4.80
2022-11-07T07:43:52.930Z,4.80
2022-11-07T07:46:24.215Z,4.80
2022-11-07T07:48:52.142Z,4.80
2022-11-07T07:51:20.041Z,4.90
2022-11-07T07:53:48.008Z,4.90
2022-11-07T07:56:17.592Z,4.90
2022-11-07T07:58:45.521Z,5.00
2022-11-07T08:01:13.499Z,5.00
2022-11-07T08:04:00.578Z,5.10
2022-11-07T08:06:29.062Z,5.10
2022-11-07T08:08:56.963Z,5.10
2022-11-07T08:11:24.968Z,5.10
2022-11-07T08:13:55.143Z,5.00
2022-11-07T08:16:26.356Z,5.00
2022-11-07T08:18:55.583Z,5.00
2022-11-07T08:21:23.534Z,5.00
2022-11-07T08:23:53.473Z,5.10
2022-11-07T08:26:21.414Z,5.10
2022-11-07T08:28:51.700Z,5.20
2022-11-07T08:31:19.587Z,5.30
2022-11-07T08:33:47.609Z,5.40
2022-11-07T08:36:16.932Z,5.50
2022-11-07T08:38:44.876Z,5.70
2022-11-07T08:41:12.778Z,5.80
2022-11-07T08:43:40.706Z,5.90
2022-11-07T08:46:08.651Z,5.90
2022-11-07T08:48:36.664Z,6.00
2022-11-07T08:51:05.045Z,6.10
2022-11-07T08:53:34.520Z,6.10
2022-11-07T08:56:03.577Z,6.20
2022-11-07T08:58:31.965Z,6.30
2022-11-07T09:01:00.289Z,6.40
2022-11-07T09:03:45.128Z,6.40
2022-11-07T09:06:14.404Z,6.50
2022-11-07T09:08:43.654Z,6.70
2022-11-07T09:11:12.322Z,6.80
2022-11-07T09:13:40.420Z,6.90
2022-11-07T09:16:08.792Z,7.00
2022-11-07T09:18:36.715Z,7.10
2022-11-07T09:21:04.670Z,7.20
2022-11-07T09:23:32.614Z,7.20
2022-11-07T09:26:01.968Z,7.30
2022-11-07T09:28:30.847Z,7.40
2022-11-07T09:30:59.872Z,7.30
2022-11-07T09:33:28.455Z,7.40
2022-11-07T09:35:59.458Z,7.50
2022-11-07T09:38:27.407Z,7.50
2022-11-07T09:41:04.297Z,7.60
2022-11-07T09:43:52.891Z,7.80
2022-11-07T09:46:34.442Z,8.00
2022-11-07T09:49:09.994Z,8.30
2022-11-07T09:51:40.623Z,8.80
2022-11-07T09:54:14.095Z,9.40
2022-11-07T09:56:43.558Z,9.80
2022-11-07T09:59:22.074Z,10.20
2022-11-07T10:01:50.223Z,10.50
2022-11-07T10:04:25.265Z,10.60
2022-11-07T10:06:59.373Z,10.50
2022-11-07T10:09:35.701Z,10.60
2022-11-07T10:12:18.711Z,10.80
2022-11-07T10:14:58.903Z,10.90
2022-11-07T10:17:34.199Z,10.70
2022-11-07T10:20:13.687Z,10.40
2022-11-07T10:22:59.202Z,10.20
2022-11-07T10:25:35.141Z,10.20
2022-11-07T10:28:14.909Z,10.00
2022-11-07T10:30:47.683Z,9.90
2022-11-07T10:33:29.054Z,9.90
2022-11-07T10:36:02.470Z,9.80
2022-11-07T10:38:32.002Z,9.70
2022-11-07T10:40:59.978Z,9.60
2022-11-07T10:43:34.084Z,9.50
2022-11-07T10:46:04.812Z,9.50
2022-11-07T10:48:33.599Z,9.40
2022-11-07T10:51:01.540Z,9.40
2022-11-07T10:53:29.776Z,9.30
2022-11-07T10:55:59.213Z,9.30
2022-11-07T10:58:31.131Z,9.30
2022-11-07T11:01:02.354Z,9.30
2022-11-07T11:03:43.577Z,9.40
2022-11-07T11:06:25.094Z,9.40
2022-11-07T11:08:54.067Z,9.40
2022-11-07T11:11:31.248Z,9.40
2022-11-07T11:14:04.765Z,9.50
2022-11-07T11:16:40.065Z,9.50
2022-11-07T11:19:22.366Z,9.50
2022-11-07T11:21:52.171Z,9.50
2022-11-07T11:24:31.737Z,9.50
2022-11-07T11:27:03.727Z,9.50
2022-11-07T11:29:40.172Z,9.50
2022-11-07T11:32:15.937Z,9.50
2022-11-07T11:34:54.814Z,9.50
2022-11-07T11:37:24.838Z,9.60
2022-11-07T11:40:08.532Z,9.50
2022-11-07T11:42:50.497Z,9.50
2022-11-07T11:45:25.507Z,9.60
2022-11-07T11:48:01.266Z,9.60
2022-11-07T11:50:41.411Z,9.60
2022-11-07T11:53:17.265Z,9.60
2022-11-07T11:55:55.198Z,9.60
2022-11-07T11:58:37.383Z,9.60
2022-11-07T12:01:13.124Z,9.60
2022-11-07T12:04:08.271Z,9.60
2022-11-07T12:06:40.759Z,9.60
2022-11-07T12:09:28.074Z,9.60
2022-11-07T12:12:05.594Z,9.60
2022-11-07T12:14:57.052Z,9.70
2022-11-07T12:17:29.542Z,9.70
2022-11-07T12:20:03.805Z,9.70
2022-11-07T12:22:44.780Z,9.70
2022-11-07T12:25:22.385Z,9.70
2022-11-07T12:28:00.502Z,9.70
2022-11-07T12:30:38.351Z,9.70
2022-11-07T12:33:18.665Z,9.70
2022-11-07T12:35:55.043Z,9.70
2022-11-07T12:38:52.128Z,9.70
2022-11-07T12:41:29.493Z,9.80
2022-11-07T12:44:11.711Z,9.80
2022-11-07T12:46:47.377Z,9.80
2022-11-07T12:49:47.866Z,9.80
2022-11-07T12:52:34.328Z,9.90
2022-11-07T12:55:15.149Z,9.80
2022-11-07T12:57:43.983Z,9.80
2022-11-07T13:00:22.329Z,9.90
2022-11-07T13:03:09.958Z,10.00
2022-11-07T13:05:50.227Z,10.00
2022-11-07T13:08:21.819Z,10.00
2022-11-07T13:10:58.039Z,10.10
2022-11-07T13:13:31.923Z,10.10
2022-11-07T13:16:15.315Z,10.10
2022-11-07T13:18:43.933Z,10.10
2022-11-07T13:21:11.850Z,10.10
2022-11-07T13:23:40.400Z,10.20
2022-11-07T13:26:45.343Z,10.40
2022-11-07T13:28:59.096Z,10.70
2022-11-07T13:31:33.250Z,11.00
2022-11-07T13:34:12.033Z,11.30
2022-11-07T13:36:40.511Z,11.40
2022-11-07T13:39:11.210Z,11.50
2022-11-07T13:41:41.115Z,11.60
2022-11-07T13:44:18.652Z,11.70
2022-11-07T13:46:50.071Z,11.80
2022-11-07T13:49:22.039Z,11.90
2022-11-07T13:51:52.726Z,11.90
2022-11-07T13:54:28.145Z,11.80
2022-11-07T13:57:00.545Z,11.70
2022-11-07T13:59:40.088Z,11.60
2022-11-07T14:02:08.197Z,11.50
2022-11-07T14:04:49.748Z,11.20
2022-11-07T14:07:26.570Z,11.10
2022-11-07T14:09:58.881Z,10.90
2022-11-07T14:12:29.159Z,10.80
2022-11-07T14:14:59.984Z,10.70
2022-11-07T14:17:32.764Z,10.60
2022-11-07T14:20:08.361Z,10.50
2022-11-07T14:22:37.495Z,10.50
2022-11-07T14:25:19.670Z,10.40
2022-11-07T14:27:50.204Z,10.30
2022-11-07T14:30:20.735Z,10.30
2022-11-07T14:32:51.257Z,10.20
2022-11-07T14:35:22.251Z,10.10
2022-11-07T14:37:50.831Z,10.00
2022-11-07T14:40:19.856Z,10.00
2022-11-07T14:42:49.587Z,10.00
2022-11-07T14:45:33.355Z,9.90
2022-11-07T14:48:08.100Z,9.90
2022-11-07T14:50:36.261Z,9.80
2022-11-07T14:53:09.294Z,9.80
2022-11-07T14:55:40.524Z,9.70
2022-11-07T14:58:13.075Z,9.70
2022-11-07T15:00:51.956Z,9.70
2022-11-07T15:03:22.739Z,9.60
2022-11-07T15:05:50.933Z,9.50
2022-11-07T15:08:29.748Z,9.50
2022-11-07T15:11:07.152Z,9.40
2022-11-07T15:13:36.849Z,9.30
2022-11-07T15:16:08.294Z,9.20
2022-11-07T15:18:42.557Z,9.20
2022-11-07T15:21:14.636Z,9.20
2022-11-07T15:23:42.619Z,9.10
2022-11-07T15:26:12.878Z,9.10
2022-11-07T15:28:50.071Z,9.00
2022-11-07T15:31:23.835Z,9.00
2022-11-07T15:33:52.176Z,8.90
2022-11-07T15:36:20.650Z,9.00
2022-11-07T15:38:49.458Z,8.90
2022-11-07T15:41:17.968Z,8.90
2022-11-07T15:43:46.225Z,8.90
2022-11-07T15:46:25.412Z,8.80
2022-11-07T15:48:53.723Z,8.80
2022-11-07T15:51:21.688Z,8.80
2022-11-07T15:53:49.605Z,8.80
2022-11-07T15:56:20.739Z,8.80
2022-11-07T15:58:49.235Z,8.80
2022-11-07T16:01:19.060Z,8.80
2022-11-07T16:03:47.048Z,8.80
2022-11-07T16:06:21.545Z,8.80
2022-11-07T16:08:49.468Z,8.90
2022-11-07T16:11:17.400Z,9.00
2022-11-07T16:13:46.060Z,9.00
2022-11-07T16:16:21.184Z,9.10
2022-11-07T16:18:50.920Z,9.10
2022-11-07T16:21:18.866Z,9.10
2022-11-07T16:23:49.586Z,9.20
2022-11-07T16:26:23.914Z,9.20
2022-11-07T16:28:51.808Z,9.30
2022-11-07T16:31:21.064Z,9.20
2022-11-07T16:33:49.044Z,9.30
2022-11-07T16:36:21.972Z,9.30
2022-11-07T16:38:49.975Z,9.30
2022-11-07T16:41:18.457Z,9.40
2022-11-07T16:43:47.016Z,9.30
2022-11-07T16:46:17.054Z,9.40
2022-11-07T16:48:47.989Z,9.40
2022-11-07T16:51:17.927Z,9.30
2022-11-07T16:53:46.169Z,9.30
2022-11-07T16:56:23.349Z,9.30
2022-11-07T16:58:51.573Z,9.30
2022-11-07T17:01:19.516Z,9.30
2022-11-07T17:03:48.827Z,9.30
2022-11-07T17:06:20.923Z,9.30
2022-11-07T17:08:49.149Z,9.30
2022-11-07T17:11:18.477Z,9.30
2022-11-07T17:13:47.187Z,9.40
2022-11-07T17:16:18.742Z,9.40
2022-11-07T17:18:49.053Z,9.40
2022-11-07T17:21:26.253Z,9.50
2022-11-07T17:23:55.392Z,9.50
2022-11-07T17:26:25.565Z,9.50
2022-11-07T17:28:54.043Z,9.60
2022-11-07T17:31:21.924Z,9.60
2022-11-07T17:33:51.239Z,9.60
2022-11-07T17:36:35.298Z,9.60
2022-11-07T17:39:10.887Z,9.60
2022-11-07T17:41:38.801Z,9.60
2022-11-07T17:44:06.815Z,9.60
2022-11-07T17:46:36.153Z,9.70
2022-11-07T17:49:07.914Z,9.70
2022-11-07T17:51:36.785Z,9.70
2022-11-07T17:54:05.546Z,9.70
2022-11-07T17:56:34.936Z,9.70
2022-11-07T17:59:05.066Z,9.70
2022-11-07T18:01:35.004Z,9.70
2022-11-07T18:04:03.518Z,9.70
2022-11-07T18:06:35.846Z,9.70
2022-11-07T18:09:04.724Z,9.70
2022-11-07T18:11:33.414Z,9.70
2022-11-07T18:14:01.825Z,9.70
2022-11-07T18:16:32.606Z,9.80
2022-11-07T18:19:01.767Z,9.80
2022-11-07T18:21:30.456Z,9.80
2022-11-07T18:23:59.719Z,9.80
2022-11-07T18:26:30.992Z,9.80
2022-11-07T18:29:02.650Z,9.90
2022-11-07T18:31:30.717Z,9.90
2022-11-07T18:34:00.002Z,9.80
2022-11-07T18:36:30.706Z,9.80
2022-11-07T18:39:04.763Z,9.70
2022-11-07T18:41:32.751Z,9.70
2022-11-07T18:44:04.773Z,9.60
2022-11-07T18:46:33.560Z,9.60
2022-11-07T18:49:01.889Z,9.60
2022-11-07T18:51:29.792Z,9.60
2022-11-07T18:53:59.959Z,9.60
2022-11-07T18:56:29.503Z,9.60
2022-11-07T18:58:58.147Z,9.50
2022-11-07T19:01:28.422Z,9.50
2022-11-07T19:03:57.672Z,9.60
2022-11-07T19:06:27.931Z,9.60
2022-11-07T19:08:55.872Z,9.60
2022-11-07T19:11:26.605Z,9.60
2022-11-07T19:13:56.953Z,9.60
2022-11-07T19:16:25.061Z,9.60
2022-11-07T19:18:53.352Z,9.60
2022-11-07T19:21:23.427Z,9.60
2022-11-07T19:23:52.325Z,9.60
2022-11-07T19:26:20.297Z,9.60
2022-11-07T19:28:48.633Z,9.60
2022-11-07T19:31:18.853Z,9.60
2022-11-07T19:33:46.863Z,9.60
2022-11-07T19:36:18.117Z,9.60
2022-11-07T19:38:46.129Z,9.60
2022-11-07T19:41:15.682Z,9.60
2022-11-07T19:43:48.394Z,9.60
2022-11-07T19:46:20.004Z,9.60
2022-11-07T19:48:48.634Z,9.60
2022-11-07T19:51:22.071Z,9.60
2022-11-07T19:53:54.753Z,9.60
2022-11-07T19:56:23.369Z,9.60
2022-11-07T19:58:51.379Z,9.60
2022-11-07T20:01:23.088Z,9.60
2022-11-07T20:03:53.353Z,9.60
2022-11-07T20:06:23.424Z,9.60
2022-11-07T20:08:51.444Z,9.60
2022-11-07T20:11:21.069Z,9.60
2022-11-07T20:13:49.033Z,9.60
2022-11-07T20:16:17.244Z,9.60
2022-11-07T20:18:46.587Z,9.60
2022-11-07T20:21:16.998Z,9.60
2022-11-07T20:23:45.982Z,9.50
2022-11-07T20:26:17.070Z,9.50
2022-11-07T20:28:45.330Z,9.50
2022-11-07T20:31:14.082Z,9.60
2022-11-07T20:33:42.186Z,9.50
2022-11-07T20:36:13.844Z,9.50
2022-11-07T20:38:43.065Z,9.50
2022-11-07T20:41:12.721Z,9.50
2022-11-07T20:43:41.254Z,9.50
2022-11-07T20:46:11.243Z,9.50
2022-11-07T20:48:39.922Z,9.50
2022-11-07T20:51:09.694Z,9.50
2022-11-07T20:53:39.996Z,9.50
2022-11-07T20:56:09.260Z,9.50
2022-11-07T20:58:39.178Z,9.50
2022-11-07T21:01:08.320Z,9.50
2022-11-07T21:03:36.428Z,9.50
2022-11-07T21:06:05.012Z,9.60
2022-11-07T21:08:37.108Z,9.50
2022-11-07T21:11:07.151Z,9.60
2022-11-07T21:13:35.881Z,9.60
2022-11-07T21:16:03.871Z,9.60
2022-11-07T21:18:32.186Z,9.60
2022-11-07T21:21:06.917Z,9.60
2022-11-07T21:23:35.012Z,9.60
2022-11-07T21:26:08.614Z,9.60
2022-11-07T21:28:40.545Z,9.60
2022-11-07T21:31:11.207Z,9.60
2022-11-07T21:33:41.178Z,9.60
2022-11-07T21:36:10.882Z,9.60
2022-11-07T21:38:39.314Z,9.70
2022-11-07T21:41:09.807Z,9.70
2022-11-07T21:43:38.972Z,9.70
2022-11-07T21:46:08.463Z,9.70
2022-11-07T21:48:37.015Z,9.70
2022-11-07T21:51:09.626Z,9.70
2022-11-07T21:53:38.117Z,9.70
2022-11-07T21:56:08.749Z,9.70
2022-11-07T21:58:36.626Z,9.70
2022-11-07T22:01:06.203Z,9.70
2022-11-07T22:04:04.741Z,9.80
2022-11-07T22:06:23.403Z,9.70
2022-11-07T22:08:52.551Z,9.70
2022-11-07T22:11:22.085Z,9.70
2022-11-07T22:13:50.012Z,9.70
2022-11-07T22:16:19.935Z,9.80
2022-11-07T22:18:48.870Z,9.80
2022-11-07T22:21:19.381Z,9.80
2022-11-07T22:23:48.100Z,9.70
2022-11-07T22:26:18.050Z,9.70
2022-11-07T22:28:47.643Z,9.80
2022-11-07T22:31:17.354Z,9.80
2022-11-07T22:33:45.412Z,9.80
2022-11-07T22:36:14.355Z,9.80
2022-11-07T22:38:43.051Z,9.80
2022-11-07T22:41:14.924Z,9.70
2022-11-07T22:43:43.224Z,9.70
2022-11-07T22:46:15.048Z,9.60
2022-11-07T22:48:43.576Z,9.60
2022-11-07T22:51:16.590Z,9.50
2022-11-07T22:53:44.574Z,9.50
2022-11-07T22:56:22.527Z,9.50
2022-11-07T22:58:53.541Z,9.40
2022-11-07T23:01:24.579Z,9.40
2022-11-07T23:03:53.203Z,9.40
2022-11-07T23:06:22.468Z,9.30
2022-11-07T23:08:50.818Z,9.30
2022-11-07T23:14:11.276Z,9.30
2022-11-07T23:16:43.912Z,9.30
2022-11-07T23:19:14.058Z,9.30
2022-11-07T23:21:42.668Z,9.30
2022-11-07T23:24:11.153Z,9.30
2022-11-07T23:26:39.380Z,9.30
2022-11-07T23:29:11.644Z,9.30
2022-11-07T23:31:43.034Z,9.30
2022-11-07T23:34:11.245Z,9.30
2022-11-07T23:36:40.844Z,9.40
2022-11-07T23:39:09.755Z,9.40
2022-11-07T23:41:37.690Z,9.40
2022-11-07T23:44:05.843Z,9.40
2022-11-07T23:46:51.390Z,9.40
2022-11-07T23:49:49.609Z,9.40
2022-11-07T23:52:18.215Z,9.50
2022-11-07T23:55:03.734Z,9.50
2022-11-07T23:57:55.233Z,9.40
